Time;durP1;ratioP1;P1;durP2;ratioP2;P2;SDS_P1;SDS_P2;PMS_P1;PMS_P2;Temp;Humidity;BMP_temperature;BMP_pressure;BME280_temperature;BME280_humidity;BME280_pressure;Samples;Min_cycle;Max_cycle;Signal;HPM_P1;HPM_P2
2022/01/28 00:00:30;;;;;;;22.60;12.20;;;1.80;99.90;;;;;;5044182;28;20180;-82
2022/01/28 00:03:04;;;;;;;21.87;12.60;;;1.70;99.90;;;;;;5043908;28;20179;-82
2022/01/28 00:05:29;;;;;;;26.00;12.07;;;2.40;99.90;;;;;;5056966;28;20190;-82
2022/01/28 00:07:56;;;;;;;27.10;14.23;;;3.10;99.90;;;;;;5075163;28;20194;-81
2022/01/28 00:10:24;;;;;;;33.10;17.37;;;3.20;99.90;;;;;;5075119;28;20636;-81
2022/01/28 00:15:31;;;;;;;29.97;15.50;;;3.90;99.90;;;;;;5057567;28;20594;-81
2022/01/28 00:39:36;;;;;;;29.53;16.63;;;1.90;99.90;;;;;;5074206;28;20194;-82
2022/01/28 00:42:02;;;;;;;26.93;15.77;;;1.90;99.90;;;;;;5056411;28;20178;-82
2022/01/28 00:44:28;;;;;;;31.90;15.57;;;1.90;99.90;;;;;;5073672;28;20180;-82
2022/01/28 00:46:53;;;;;;;34.00;17.03;;;1.90;99.90;;;;;;5074013;28;20587;-82
2022/01/28 00:49:19;;;;;;;25.97;13.40;;;2.10;99.90;;;;;;5056252;28;20182;-82
2022/01/28 00:51:45;;;;;;;24.63;13.37;;;2.50;99.90;;;;;;5056364;28;20218;-82
2022/01/28 00:54:10;;;;;;;32.20;15.47;;;1.90;99.90;;;;;;5055105;28;20192;-82
2022/01/28 00:56:36;;;;;;;34.50;18.47;;;3.70;99.90;;;;;;5038973;28;20196;-82
2022/01/28 00:59:02;;;;;;;31.57;17.40;;;2.00;99.90;;;;;;5074005;28;20225;-82
2022/01/28 01:01:29;;;;;;;35.17;15.83;;;2.00;99.90;;;;;;5055722;28;20214;-82
2022/01/28 01:03:58;;;;;;;33.57;15.10;;;2.10;99.90;;;;;;5074040;28;20171;-82
2022/01/28 01:06:25;;;;;;;30.20;16.47;;;2.00;99.90;;;;;;5056221;28;20174;-82
2022/01/28 01:08:51;;;;;;;34.03;15.73;;;2.00;99.90;;;;;;5055884;28;20190;-81
2022/01/28 01:11:20;;;;;;;24.47;13.27;;;3.70;99.90;;;;;;5073862;28;20175;-84
2022/01/28 01:13:46;;;;;;;29.93;15.10;;;2.10;99.90;;;;;;5073817;28;20214;-82
2022/01/28 01:16:15;;;;;;;28.47;15.63;;;2.40;99.90;;;;;;5055713;28;20215;-82
2022/01/28 01:18:51;;;;;;;26.93;14.40;;;2.30;99.90;;;;;;5056111;28;20207;-81
2022/01/28 01:21:22;;;;;;;29.13;15.73;;;3.30;99.90;;;;;;5040219;28;20178;-82
2022/01/28 01:23:56;;;;;;;24.07;12.80;;;4.20;99.90;;;;;;5056973;28;20739;-82
2022/01/28 01:26:35;;;;;;;24.07;13.30;;;2.40;99.90;;;;;;5039584;28;20226;-82
2022/01/28 01:29:02;;;;;;;25.30;14.00;;;2.60;99.90;;;;;;5073634;28;20625;-82
2022/01/28 01:31:28;;;;;;;24.60;13.37;;;2.20;99.90;;;;;;5055293;28;20320;-83
2022/01/28 01:34:04;;;;;;;25.63;12.17;;;2.30;99.90;;;;;;5055291;28;20593;-83
2022/01/28 01:36:30;;;;;;;21.97;10.20;;;3.40;99.90;;;;;;5055433;28;20277;-82
2022/01/28 01:38:56;;;;;;;22.60;13.00;;;2.10;99.90;;;;;;5055918;28;20306;-81
2022/01/28 01:41:34;;;;;;;25.77;13.20;;;3.30;99.90;;;;;;5072741;28;20241;-82
2022/01/28 01:54:25;;;;;;;16.83;9.33;;;3.90;99.90;;;;;;5057783;28;20233;-83
2022/01/28 01:56:53;;;;;;;21.57;12.40;;;2.50;99.90;;;;;;5073193;28;20179;-81
2022/01/28 01:59:18;;;;;;;20.23;10.70;;;2.30;99.90;;;;;;5038805;28;20575;-81
2022/01/28 02:01:44;;;;;;;21.37;10.60;;;2.30;99.90;;;;;;5038350;28;20186;-81
2022/01/28 02:04:10;;;;;;;22.17;11.87;;;2.30;99.90;;;;;;5055472;28;20195;-81
2022/01/28 02:06:37;;;;;;;18.97;11.30;;;2.40;99.90;;;;;;5054475;28;20179;-82
2022/01/28 02:09:04;;;;;;;16.40;9.87;;;4.40;99.90;;;;;;5055158;28;20180;-82
2022/01/28 02:11:30;;;;;;;17.03;9.63;;;2.50;99.90;;;;;;5054843;28;20222;-82
2022/01/28 02:13:56;;;;;;;12.80;7.37;;;2.50;99.90;;;;;;5071784;28;20631;-81
2022/01/28 02:16:22;;;;;;;17.27;10.60;;;2.50;99.90;;;;;;5072927;28;20214;-82
2022/01/28 02:18:47;;;;;;;14.63;8.77;;;2.50;99.90;;;;;;5054682;28;20167;-82
2022/01/28 02:21:16;;;;;;;14.13;8.70;;;3.10;99.90;;;;;;5054824;28;20190;-82
2022/01/28 02:23:44;;;;;;;17.27;8.80;;;4.20;99.90;;;;;;5072645;28;20183;-82
2022/01/28 02:26:14;;;;;;;16.90;9.13;;;2.70;99.90;;;;;;5072702;28;20234;-83
2022/01/28 02:28:41;;;;;;;13.93;8.27;;;2.80;99.90;;;;;;5072616;28;20703;-82
2022/01/28 02:31:07;;;;;;;18.63;8.93;;;2.70;99.90;;;;;;5055033;28;20175;-82
2022/01/28 02:33:33;;;;;;;14.33;7.70;;;2.60;99.90;;;;;;5054729;28;20266;-82
2022/01/28 02:36:04;;;;;;;16.73;8.63;;;2.60;99.90;;;;;;5038315;28;20210;-82
2022/01/28 02:38:30;;;;;;;14.67;8.57;;;2.50;99.90;;;;;;5054489;28;20654;-82
2022/01/28 02:40:59;;;;;;;16.23;8.27;;;3.50;99.90;;;;;;5072967;28;20176;-82
2022/01/28 02:46:02;;;;;;;12.87;8.07;;;2.60;99.90;;;;;;5072660;28;20226;-82
2022/01/28 02:48:29;;;;;;;19.57;8.90;;;2.60;99.90;;;;;;5054731;28;20516;-85
2022/01/28 02:53:27;;;;;;;16.43;7.63;;;2.60;99.90;;;;;;5072579;28;20213;-82
2022/01/28 02:55:59;;;;;;;13.23;7.70;;;2.50;99.90;;;;;;5072134;28;20237;-82
2022/01/28 02:58:26;;;;;;;15.17;6.97;;;3.10;99.90;;;;;;5054782;28;20730;-82
2022/01/28 03:00:54;;;;;;;10.33;7.30;;;2.60;99.90;;;;;;5054617;28;20181;-82
2022/01/28 03:03:23;;;;;;;12.47;7.60;;;3.60;99.90;;;;;;5072468;28;20179;-82
2022/01/28 03:05:49;;;;;;;15.33;8.37;;;2.60;99.90;;;;;;5054980;28;20191;-83
2022/01/28 03:08:16;;;;;;;10.70;5.17;;;3.50;99.90;;;;;;5054640;28;20633;-82
2022/01/28 03:15:55;;;;;;;11.93;7.93;;;2.40;99.90;;;;;;5054528;28;20219;-82
2022/01/28 03:18:28;;;;;;;16.10;8.90;;;2.40;99.90;;;;;;5057834;28;20534;-81
2022/01/28 03:23:19;;;;;;;13.97;7.57;;;2.30;99.90;;;;;;5058296;28;20187;-82
2022/01/28 03:25:47;;;;;;;14.83;8.27;;;2.20;99.90;;;;;;5057709;28;20187;-83
2022/01/28 03:28:14;;;;;;;13.93;7.80;;;2.50;99.90;;;;;;5075823;28;20604;-82
2022/01/28 03:30:40;;;;;;;13.53;7.97;;;2.20;99.90;;;;;;5058126;28;20642;-83
2022/01/28 03:33:05;;;;;;;16.53;8.03;;;2.20;99.90;;;;;;5058160;28;20183;-82
2022/01/28 03:35:33;;;;;;;16.67;8.43;;;2.20;99.90;;;;;;5041078;28;20554;-82
2022/01/28 03:38:00;;;;;;;13.53;7.97;;;2.10;99.90;;;;;;5075699;28;20180;-82
2022/01/28 03:40:27;;;;;;;14.27;8.53;;;2.10;99.90;;;;;;5057925;28;20190;-83
2022/01/28 03:42:53;;;;;;;12.03;7.37;;;2.10;99.90;;;;;;5057444;28;20367;-82
2022/01/28 03:45:19;;;;;;;13.33;8.30;;;2.20;99.90;;;;;;5040711;28;20274;-82
2022/01/28 03:47:44;;;;;;;10.00;6.50;;;2.20;99.90;;;;;;5057416;28;20182;-82
2022/01/28 03:50:10;;;;;;;12.10;6.00;;;2.60;99.90;;;;;;5057402;28;20180;-83
2022/01/28 03:52:36;;;;;;;15.43;7.33;;;3.50;99.90;;;;;;5074863;28;20534;-84
2022/01/28 03:55:02;;;;;;;13.60;7.60;;;3.90;99.90;;;;;;5057488;28;20211;-82
2022/01/28 03:57:28;;;;;;;7.23;5.27;;;2.10;99.90;;;;;;5057723;28;20229;-82
2022/01/28 03:59:53;;;;;;;15.77;7.53;;;2.20;99.90;;;;;;5057127;28;20191;-82
2022/01/28 04:02:23;;;;;;;8.77;5.17;;;2.20;99.90;;;;;;5057450;28;20623;-82
2022/01/28 04:12:53;;;;;;;9.80;5.63;;;2.20;99.90;;;;;;5074891;28;20230;-82
2022/01/28 04:17:45;;;;;;;7.67;5.17;;;2.50;99.90;;;;;;5056845;28;20191;-82
2022/01/28 04:20:10;;;;;;;8.30;4.47;;;2.90;99.90;;;;;;5075200;28;20229;-82
2022/01/28 04:22:36;;;;;;;6.53;4.03;;;2.40;99.90;;;;;;5075237;28;20641;-82
2022/01/28 04:25:02;;;;;;;12.17;5.00;;;3.50;99.90;;;;;;5057079;28;20186;-84
2022/01/28 04:27:28;;;;;;;9.67;3.97;;;2.50;99.90;;;;;;5056743;28;20230;-83
2022/01/28 04:29:54;;;;;;;9.37;3.87;;;2.60;99.90;;;;;;5056785;28;20187;-83
2022/01/28 04:32:20;;;;;;;7.10;3.73;;;2.50;99.90;;;;;;5074982;28;20176;-83
2022/01/28 04:34:46;;;;;;;8.83;4.27;;;3.70;99.90;;;;;;5056541;28;20646;-82
2022/01/28 04:37:28;;;;;;;4.97;3.43;;;2.50;99.90;;;;;;5056836;28;20191;-81
2022/01/28 04:40:01;;;;;;;5.10;3.33;;;2.70;99.90;;;;;;5041941;28;20182;-82
2022/01/28 04:47:48;;;;;;;10.03;3.30;;;4.00;99.90;;;;;;5036034;28;20609;-84
2022/01/28 04:50:28;;;;;;;12.90;3.20;;;2.40;99.90;;;;;;5035092;28;20219;-83
2022/01/28 05:04:04;;;;;;;4.47;2.67;;;2.30;99.90;;;;;;5052088;28;20192;-83
2022/01/28 05:09:27;;;;;;;4.87;2.40;;;2.10;99.90;;;;;;5052443;28;20714;-83
2022/01/28 05:27:38;;;;;;;3.27;2.20;;;2.50;99.90;;;;;;5051847;28;20235;-83
2022/01/28 05:30:06;;;;;;;4.93;2.30;;;3.30;99.90;;;;;;5035960;28;20283;-83
2022/01/28 05:32:31;;;;;;;5.57;2.20;;;1.70;99.90;;;;;;5014218;28;20715;-83
2022/01/28 05:34:57;;;;;;;4.13;2.27;;;1.50;99.90;;;;;;5001563;28;20211;-85
2022/01/28 05:37:22;;;;;;;5.40;2.60;;;1.70;99.90;;;;;;5052512;28;20199;-82
2022/01/28 05:39:48;;;;;;;3.90;1.70;;;1.60;99.90;;;;;;5005559;28;20183;-83
2022/01/28 05:42:14;;;;;;;4.37;1.93;;;3.60;99.90;;;;;;5036672;28;20175;-82
2022/01/28 05:44:39;;;;;;;4.20;2.50;;;2.80;99.90;;;;;;5017012;28;20198;-83
2022/01/28 05:47:05;;;;;;;4.57;2.43;;;2.50;99.90;;;;;;5017996;28;20188;-85
2022/01/28 05:49:31;;;;;;;2.37;1.80;;;1.50;99.90;;;;;;5033954;28;20739;-83
2022/01/28 05:51:57;;;;;;;3.43;2.20;;;1.40;99.90;;;;;;5035341;28;20206;-84
2022/01/28 05:54:23;;;;;;;8.10;2.10;;;2.10;99.90;;;;;;5015486;28;20192;-83
2022/01/28 05:56:49;;;;;;;3.57;1.70;;;1.60;99.90;;;;;;5051919;28;20226;-83
2022/01/28 05:59:15;;;;;;;2.90;1.93;;;1.30;99.90;;;;;;5017992;28;20245;-84
2022/01/28 06:01:41;;;;;;;4.30;2.23;;;1.90;99.90;;;;;;5052817;28;20188;-84
2022/01/28 06:04:06;;;;;;;2.87;2.40;;;2.50;99.90;;;;;;5016330;28;20287;-84
2022/01/28 06:06:33;;;;;;;4.50;2.40;;;1.30;99.90;;;;;;5033556;28;20644;-82
2022/01/28 06:08:59;;;;;;;3.10;2.57;;;1.30;99.90;;;;;;5033695;28;20561;-83
2022/01/28 06:11:25;;;;;;;2.13;1.93;;;1.30;99.90;;;;;;5018201;28;20193;-81
2022/01/28 06:13:51;;;;;;;2.57;1.90;;;1.60;99.90;;;;;;5041426;28;20196;-85
2022/01/28 06:16:18;;;;;;;2.17;1.93;;;1.30;99.90;;;;;;5037092;28;20703;-82
2022/01/28 06:18:44;;;;;;;3.23;2.27;;;3.10;99.90;;;;;;5058411;28;20256;-83
2022/01/28 06:21:10;;;;;;;1.67;1.57;;;1.30;99.90;;;;;;5088926;28;20194;-85
2022/01/28 06:23:37;;;;;;;3.03;2.00;;;1.30;99.90;;;;;;5062976;28;20235;-86
2022/01/28 06:26:04;;;;;;;3.00;2.30;;;1.40;99.90;;;;;;5062049;28;20228;-84
2022/01/28 06:28:30;;;;;;;5.37;2.87;;;2.60;99.90;;;;;;5062076;28;20167;-85
2022/01/28 06:30:56;;;;;;;2.43;1.93;;;3.20;99.90;;;;;;5058471;28;20241;-83
2022/01/28 06:33:22;;;;;;;2.63;1.97;;;1.90;99.90;;;;;;5074782;28;20163;-85
2022/01/28 06:35:48;;;;;;;3.80;2.53;;;1.50;99.90;;;;;;5057774;28;20198;-87
2022/01/28 06:38:14;;;;;;;3.17;1.97;;;2.30;99.90;;;;;;5059586;28;20180;-85
2022/01/28 06:40:40;;;;;;;3.10;2.00;;;3.70;99.90;;;;;;5042397;28;20172;-82
2022/01/28 06:43:13;;;;;;;2.67;2.27;;;1.50;99.90;;;;;;5076660;28;20189;-83
2022/01/28 06:45:42;;;;;;;7.13;2.03;;;1.60;99.90;;;;;;5047522;28;20175;-85
2022/01/28 06:48:19;;;;;;;3.00;2.30;;;1.40;99.90;;;;;;5051201;28;20186;-82
2022/01/28 06:50:45;;;;;;;3.33;2.13;;;1.60;99.90;;;;;;5057597;28;20147;-84
2022/01/28 06:53:13;;;;;;;1.97;1.77;;;2.60;99.90;;;;;;5060641;28;20191;-83
2022/01/28 06:55:40;;;;;;;3.70;2.07;;;1.60;99.90;;;;;;5060836;28;20204;-82
2022/01/28 06:58:07;;;;;;;3.43;2.23;;;2.10;99.90;;;;;;5043354;28;20251;-84
2022/01/28 07:00:37;;;;;;;2.73;1.90;;;2.50;99.90;;;;;;5027392;28;20160;-82
2022/01/28 07:03:04;;;;;;;4.03;2.27;;;1.60;99.90;;;;;;5059946;28;20160;-83
2022/01/28 07:05:30;;;;;;;2.63;2.20;;;1.80;99.90;;;;;;5059501;28;20157;-83
2022/01/28 07:07:55;;;;;;;2.70;2.20;;;2.20;99.90;;;;;;5059488;28;20157;-86
2022/01/28 07:10:21;;;;;;;3.47;2.23;;;1.60;99.90;;;;;;5059629;28;20167;-84
2022/01/28 07:12:47;;;;;;;3.53;2.77;;;1.60;99.90;;;;;;5061751;28;20556;-81
2022/01/28 07:15:12;;;;;;;4.17;2.90;;;2.50;99.90;;;;;;5046169;28;20207;-83
2022/01/28 07:17:38;;;;;;;3.53;2.57;;;1.80;99.90;;;;;;5059275;28;20261;-82
2022/01/28 07:20:05;;;;;;;3.43;2.70;;;2.50;99.90;;;;;;5040889;28;20211;-82
2022/01/28 07:22:31;;;;;;;2.80;2.50;;;2.00;99.90;;;;;;5041572;28;20186;-83
2022/01/28 07:24:56;;;;;;;3.23;2.53;;;2.30;99.90;;;;;;5058296;28;20190;-84
2022/01/28 07:27:22;;;;;;;5.60;3.00;;;2.00;99.90;;;;;;5022640;28;20239;-82
2022/01/28 07:29:50;;;;;;;5.93;2.43;;;2.00;99.90;;;;;;5024394;28;20658;-82
2022/01/28 07:32:15;;;;;;;3.60;2.90;;;2.10;99.90;;;;;;5040424;28;20180;-82
2022/01/28 07:34:41;;;;;;;4.67;3.00;;;2.10;99.90;;;;;;5023518;28;20265;-81
2022/01/28 07:37:07;;;;;;;4.40;3.07;;;2.20;99.90;;;;;;5041658;28;20191;-82
2022/01/28 07:39:33;;;;;;;5.10;3.10;;;2.20;99.90;;;;;;5041511;28;20191;-82
2022/01/28 07:42:01;;;;;;;6.27;4.53;;;;;;;;;;5043696;28;20617;-84
2022/01/28 07:44:26;;;;;;;4.03;3.10;;;2.20;99.90;;;;;;5058524;28;20182;-82
2022/01/28 07:46:53;;;;;;;4.67;3.20;;;2.20;99.90;;;;;;5022936;28;20207;-82
2022/01/28 07:49:19;;;;;;;4.83;3.23;;;2.30;99.90;;;;;;5038803;28;20191;-82
2022/01/28 07:51:44;;;;;;;2.63;2.43;;;2.20;99.90;;;;;;5022732;28;20230;-81
2022/01/28 07:54:11;;;;;;;4.73;2.97;;;2.20;99.90;;;;;;5022890;28;20613;-83
2022/01/28 07:56:37;;;;;;;3.73;2.97;;;2.20;99.90;;;;;;5060286;28;20191;-82
2022/01/28 07:59:03;;;;;;;4.83;4.30;;;2.30;99.90;;;;;;5059615;28;20188;-84
2022/01/28 08:01:28;;;;;;;3.37;2.30;;;2.30;99.90;;;;;;5050567;28;20184;-82
2022/01/28 08:03:54;;;;;;;3.23;2.60;;;3.10;99.90;;;;;;5038847;28;20187;-83
2022/01/28 08:06:20;;;;;;;2.00;1.73;;;2.30;99.90;;;;;;5059541;28;20190;-82
2022/01/28 08:08:45;;;;;;;3.03;2.30;;;2.40;99.90;;;;;;5069642;28;20184;-82
2022/01/28 08:11:11;;;;;;;3.73;2.40;;;3.50;99.90;;;;;;5038573;28;20179;-82
2022/01/28 08:13:37;;;;;;;3.90;3.07;;;2.30;99.90;;;;;;5038200;28;20255;-82
2022/01/28 08:16:05;;;;;;;3.77;2.73;;;2.50;99.90;;;;;;5022017;28;20791;-83
2022/01/28 08:18:33;;;;;;;4.20;3.30;;;2.30;99.90;;;;;;5038873;28;20195;-82
2022/01/28 08:21:05;;;;;;;2.80;2.50;;;2.30;99.90;;;;;;5022998;28;20187;-81
2022/01/28 08:23:32;;;;;;;4.10;2.93;;;;;;;;;;5039996;28;20183;-81
2022/01/28 08:26:00;;;;;;;6.67;3.23;;;2.20;99.90;;;;;;5039245;28;20234;-82
2022/01/28 08:28:27;;;;;;;5.00;3.23;;;3.00;99.90;;;;;;5039708;28;20260;-82
2022/01/28 08:30:55;;;;;;;5.23;2.73;;;;;;;;;;5039927;28;20656;-82
2022/01/28 08:33:22;;;;;;;3.97;3.00;;;2.30;99.90;;;;;;5038780;28;20187;-81
2022/01/28 08:35:52;;;;;;;7.00;3.77;;;2.30;99.90;;;;;;5038578;28;20203;-81
2022/01/28 08:38:26;;;;;;;5.47;2.97;;;2.30;99.90;;;;;;5039121;28;20160;-82
2022/01/28 08:40:53;;;;;;;6.80;2.63;;;2.30;99.90;;;;;;5038071;28;20202;-82
2022/01/28 08:43:20;;;;;;;4.33;3.77;;;2.40;99.90;;;;;;5037787;28;20701;-82
2022/01/28 08:45:46;;;;;;;6.20;3.60;;;2.40;99.90;;;;;;5038454;28;20641;-82
2022/01/28 08:48:12;;;;;;;7.73;2.77;;;2.40;99.90;;;;;;5038002;28;20706;-82
2022/01/28 08:50:37;;;;;;;7.43;4.23;;;2.70;99.90;;;;;;5021352;28;20183;-81
2022/01/28 08:53:03;;;;;;;6.03;3.43;;;2.50;99.90;;;;;;5055627;28;20175;-81
2022/01/28 08:55:29;;;;;;;5.33;3.87;;;4.00;99.90;;;;;;5020183;28;20302;-82
2022/01/28 08:57:56;;;;;;;6.37;4.30;;;2.50;99.90;;;;;;5054401;28;20192;-81
2022/01/28 09:00:22;;;;;;;4.03;3.30;;;2.60;99.90;;;;;;5036288;28;20318;-81
2022/01/28 09:02:49;;;;;;;3.53;2.47;;;2.60;99.90;;;;;;5020065;28;20658;-82
2022/01/28 09:05:15;;;;;;;5.97;3.43;;;2.70;99.90;;;;;;5019765;28;20188;-82
2022/01/28 09:07:40;;;;;;;5.67;4.00;;;2.70;99.90;;;;;;5038118;28;20178;-81
2022/01/28 09:10:18;;;;;;;3.40;2.20;;;2.70;99.90;;;;;;5055302;28;20514;-81
2022/01/28 09:15:15;;;;;;;4.57;3.10;;;2.80;99.90;;;;;;5034940;28;20304;-83
2022/01/28 09:17:41;;;;;;;5.53;3.40;;;2.70;99.90;;;;;;5018580;28;20176;-82
2022/01/28 09:20:07;;;;;;;9.07;4.33;;;2.90;99.90;;;;;;5030079;28;20186;-81
2022/01/28 09:22:33;;;;;;;4.47;3.13;;;2.70;99.90;;;;;;5035602;28;20180;-81
2022/01/28 09:24:59;;;;;;;6.00;3.17;;;2.70;99.90;;;;;;5053184;28;20217;-81
2022/01/28 09:27:24;;;;;;;6.03;4.80;;;2.60;99.90;;;;;;5052638;28;20231;-82
2022/01/28 09:29:50;;;;;;;6.53;4.43;;;2.60;99.90;;;;;;5034865;28;20269;-82
2022/01/28 09:32:19;;;;;;;7.53;4.67;;;3.30;99.90;;;;;;5035085;28;20628;-82
2022/01/28 09:34:44;;;;;;;5.00;3.03;;;2.50;99.90;;;;;;5032525;28;20217;-82
2022/01/28 09:37:13;;;;;;;7.63;4.67;;;2.50;99.90;;;;;;5029040;28;20571;-82
2022/01/28 09:39:43;;;;;;;6.90;4.40;;;2.50;99.90;;;;;;5044674;28;20197;-82
2022/01/28 09:42:15;;;;;;;3.93;2.80;;;2.50;99.90;;;;;;5037209;28;20178;-83
2022/01/28 09:44:43;;;;;;;11.00;5.57;;;2.70;99.90;;;;;;5055461;28;20651;-82
2022/01/28 09:47:13;;;;;;;7.47;4.50;;;2.50;99.90;;;;;;5073481;28;20171;-83
2022/01/28 09:49:39;;;;;;;7.80;4.43;;;2.40;99.90;;;;;;5074590;28;20211;-82
2022/01/28 09:52:08;;;;;;;5.67;3.83;;;2.70;99.90;;;;;;5055286;28;20179;-82
2022/01/28 09:54:35;;;;;;;4.63;2.87;;;2.50;99.90;;;;;;5074277;28;20254;-82
2022/01/28 09:57:02;;;;;;;6.13;2.60;;;2.60;99.90;;;;;;5073631;28;20213;-84
2022/01/28 09:59:28;;;;;;;8.00;3.97;;;2.50;99.90;;;;;;5055050;28;20191;-83
2022/01/28 10:01:55;;;;;;;4.20;3.40;;;2.50;99.90;;;;;;5055148;28;20187;-82
2022/01/28 10:04:21;;;;;;;3.57;3.10;;;3.60;99.90;;;;;;5059476;28;20195;-83
2022/01/28 10:06:48;;;;;;;5.23;4.07;;;2.50;99.90;;;;;;5051914;28;20187;-84
2022/01/28 10:09:17;;;;;;;8.93;4.37;;;2.50;99.90;;;;;;5046146;28;20396;-83
2022/01/28 10:11:45;;;;;;;8.33;4.63;;;2.50;99.90;;;;;;5028418;28;20180;-83
2022/01/28 10:14:15;;;;;;;5.13;4.07;;;2.50;99.90;;;;;;5074269;28;20171;-83
2022/01/28 10:16:42;;;;;;;7.37;4.13;;;2.50;99.90;;;;;;5056360;28;20202;-81
2022/01/28 10:19:10;;;;;;;9.80;4.70;;;2.50;99.90;;;;;;5078122;28;20175;-83
2022/01/28 10:21:38;;;;;;;8.10;4.87;;;2.50;99.90;;;;;;5067651;28;20167;-82
2022/01/28 10:24:12;;;;;;;7.23;5.50;;;2.50;99.90;;;;;;5060657;28;20184;-84
2022/01/28 10:26:40;;;;;;;5.97;4.43;;;2.50;99.90;;;;;;5065257;28;20238;-83
2022/01/28 10:29:25;;;;;;;4.53;3.00;;;2.80;99.90;;;;;;5076741;28;20163;-84
2022/01/28 10:31:59;;;;;;;5.47;3.80;;;2.50;99.90;;;;;;5101723;28;20227;-85
2022/01/28 10:34:34;;;;;;;10.13;4.27;;;2.50;99.90;;;;;;5091084;28;20171;-85
2022/01/28 10:37:30;;;;;;;4.43;3.20;;;2.50;99.90;;;;;;5064900;28;20178;-84
2022/01/28 10:40:22;;;;;;;4.53;3.00;;;2.50;99.90;;;;;;5035615;28;20217;-85
2022/01/28 10:42:52;;;;;;;5.67;3.40;;;2.20;99.90;;;;;;5060309;28;20673;-85
2022/01/28 10:45:20;;;;;;;4.17;2.87;;;2.40;99.90;;;;;;5082436;28;20183;-86
2022/01/28 10:47:48;;;;;;;3.43;2.50;;;2.40;99.90;;;;;;5083387;28;20178;-86
2022/01/28 10:50:35;;;;;;;4.97;2.87;;;2.40;99.90;;;;;;5083108;28;20182;-85
2022/01/28 10:53:09;;;;;;;6.37;3.17;;;2.40;99.90;;;;;;5065446;28;20180;-84
2022/01/28 10:55:57;;;;;;;4.47;2.33;;;2.40;99.90;;;;;;5060627;28;20214;-83
2022/01/28 10:58:28;;;;;;;5.90;4.13;;;2.40;99.90;;;;;;5047951;28;20197;-83
2022/01/28 11:00:59;;;;;;;8.43;3.67;;;3.20;99.90;;;;;;5043439;28;20245;-83
2022/01/28 11:03:27;;;;;;;6.10;4.27;;;2.40;99.90;;;;;;5055799;28;20249;-82
2022/01/28 11:05:58;;;;;;;5.67;4.23;;;2.30;99.90;;;;;;5060869;28;20185;-84
2022/01/28 11:08:29;;;;;;;7.23;5.07;;;-0.60;99.90;;;;;;5079003;28;20159;-85
2022/01/28 11:10:55;;;;;;;10.60;7.63;;;2.40;99.90;;;;;;5063602;28;20189;-84
2022/01/28 11:13:21;;;;;;;7.40;4.40;;;2.40;99.90;;;;;;5045451;28;20188;-84
2022/01/28 11:15:47;;;;;;;9.57;6.23;;;2.40;99.90;;;;;;5079512;28;20692;-85
2022/01/28 11:18:14;;;;;;;9.37;6.93;;;2.40;99.90;;;;;;5061405;28;20191;-84
2022/01/28 11:20:51;;;;;;;10.23;6.23;;;2.40;99.90;;;;;;5080225;28;20178;-83
2022/01/28 11:23:54;;;;;;;6.20;4.70;;;2.40;99.90;;;;;;5078917;28;20226;-84
2022/01/28 11:26:19;;;;;;;8.83;5.90;;;2.40;99.90;;;;;;5073123;28;20218;-83
2022/01/28 11:28:51;;;;;;;13.10;7.47;;;2.40;99.90;;;;;;5049395;28;20218;-83
2022/01/28 11:31:53;;;;;;;9.93;6.10;;;2.30;99.90;;;;;;5050440;28;20208;-83
2022/01/28 11:34:23;;;;;;;13.83;9.00;;;2.30;99.90;;;;;;5056537;28;20174;-83
2022/01/28 11:36:50;;;;;;;13.07;8.23;;;2.30;99.90;;;;;;5055052;28;20191;-83
2022/01/28 11:39:42;;;;;;;8.73;5.50;;;2.20;99.90;;;;;;5036113;28;20181;-83
2022/01/28 11:42:16;;;;;;;13.07;8.77;;;2.20;99.90;;;;;;5050626;28;20231;-86
2022/01/28 11:44:51;;;;;;;16.17;11.60;;;2.20;99.90;;;;;;5058686;28;20167;-82
2022/01/28 11:47:27;;;;;;;16.70;10.20;;;2.20;99.90;;;;;;5037540;28;20190;-82
2022/01/28 11:50:16;;;;;;;11.10;6.83;;;1.10;99.90;;;;;;5055288;28;20176;-85
2022/01/28 11:52:52;;;;;;;9.50;7.30;;;2.20;99.90;;;;;;5038251;28;20164;-81
2022/01/28 11:55:17;;;;;;;9.27;6.63;;;2.20;99.90;;;;;;5057044;28;20233;-83
2022/01/28 11:58:05;;;;;;;8.17;7.13;;;2.30;99.90;;;;;;5074566;28;20655;-83
2022/01/28 12:00:47;;;;;;;8.83;5.60;;;2.20;99.90;;;;;;5056235;28;20309;-83
2022/01/28 12:03:18;;;;;;;10.00;6.90;;;2.20;99.90;;;;;;5068346;28;20692;-83
2022/01/28 12:05:44;;;;;;;6.47;5.00;;;4.50;99.90;;;;;;5055238;28;20187;-83
2022/01/28 12:08:12;;;;;;;8.23;5.20;;;2.80;99.90;;;;;;5049395;28;20325;-83
2022/01/28 12:10:44;;;;;;;8.70;6.87;;;2.00;99.90;;;;;;5051972;28;20172;-84
2022/01/28 12:13:14;;;;;;;8.33;5.30;;;2.60;99.90;;;;;;5077140;28;20164;-83
2022/01/28 12:16:01;;;;;;;8.33;5.10;;;2.10;99.90;;;;;;5074381;28;20200;-84
2022/01/28 12:19:09;;;;;;;7.40;4.80;;;3.40;99.90;;;;;;5056868;28;20277;-83
2022/01/28 12:21:35;;;;;;;6.07;3.83;;;2.10;99.90;;;;;;5061273;28;20217;-83
2022/01/28 12:24:19;;;;;;;4.03;3.47;;;2.20;99.90;;;;;;5047107;28;20640;-82
2022/01/28 12:27:02;;;;;;;8.37;5.23;;;2.70;99.90;;;;;;5060882;28;20719;-84
2022/01/28 12:29:30;;;;;;;8.30;5.70;;;2.10;99.90;;;;;;5062747;28;20701;-83
2022/01/28 12:31:58;;;;;;;6.30;4.73;;;2.20;99.90;;;;;;5060599;28;20191;-82
2022/01/28 12:34:25;;;;;;;5.90;4.50;;;2.00;99.90;;;;;;5045380;28;20202;-80
2022/01/28 12:36:51;;;;;;;6.53;5.00;;;;;;;;;;5035746;28;20322;-81
2022/01/28 12:39:32;;;;;;;4.30;3.27;;;2.10;99.90;;;;;;5040850;28;20293;-82
2022/01/28 12:42:42;;;;;;;5.47;3.40;;;2.80;99.90;;;;;;5056991;28;20155;-82
2022/01/28 12:44:53;;;;;;;4.47;4.00;;;2.20;99.90;;;;;;5065098;28;20246;-81
2022/01/28 12:47:19;;;;;;;7.70;4.03;;;2.30;99.90;;;;;;5073615;28;20180;-82
2022/01/28 12:49:46;;;;;;;7.07;4.20;;;2.10;99.90;;;;;;5055357;28;20185;-81
2022/01/28 12:52:12;;;;;;;6.87;4.37;;;2.00;99.90;;;;;;5055995;28;20544;-83
2022/01/28 12:54:44;;;;;;;6.00;4.00;;;2.00;99.90;;;;;;5064923;28;20178;-84
2022/01/28 12:57:12;;;;;;;8.30;5.37;;;2.00;99.90;;;;;;5044589;28;20191;-83
2022/01/28 12:59:39;;;;;;;7.93;4.80;;;2.00;99.90;;;;;;5046681;28;20229;-82
2022/01/28 13:02:06;;;;;;;6.77;5.07;;;2.00;99.90;;;;;;5055890;28;20190;-82
2022/01/28 13:04:52;;;;;;;7.40;4.60;;;2.00;99.90;;;;;;5056489;28;20187;-82
2022/01/28 13:09:54;;;;;;;6.20;4.30;;;2.10;99.90;;;;;;5073399;28;20217;-82
2022/01/28 13:12:25;;;;;;;8.60;5.10;;;2.10;99.90;;;;;;5055389;28;20187;-83
2022/01/28 13:14:51;;;;;;;6.33;3.70;;;2.60;99.90;;;;;;5072602;28;20237;-82
2022/01/28 13:17:23;;;;;;;7.13;4.13;;;3.00;99.90;;;;;;5055506;28;20643;-84
2022/01/28 13:19:59;;;;;;;8.30;5.10;;;3.70;99.90;;;;;;5055282;28;20190;-84
2022/01/28 13:22:27;;;;;;;5.50;3.30;;;2.30;99.90;;;;;;5055418;28;20562;-83
2022/01/28 13:24:53;;;;;;;7.87;4.13;;;2.30;99.90;;;;;;5055708;28;20206;-83
2022/01/28 13:27:21;;;;;;;7.97;3.73;;;2.30;99.90;;;;;;5074464;28;20258;-85
2022/01/28 13:29:53;;;;;;;3.93;3.17;;;3.50;99.90;;;;;;5038554;28;20188;-85
2022/01/28 13:32:28;;;;;;;6.07;4.10;;;2.30;99.90;;;;;;5055894;28;20253;-84
2022/01/28 13:34:59;;;;;;;6.20;3.80;;;2.40;99.90;;;;;;5015981;28;20211;-84
2022/01/28 13:37:44;;;;;;;6.80;4.00;;;2.40;99.90;;;;;;5053460;28;20229;-82
2022/01/28 13:40:28;;;;;;;3.83;2.80;;;2.40;99.90;;;;;;5035401;28;20180;-84
2022/01/28 13:43:15;;;;;;;5.43;3.23;;;2.40;99.90;;;;;;5053211;28;20179;-82
2022/01/28 13:45:50;;;;;;;4.73;3.47;;;2.40;99.90;;;;;;5051893;28;20176;-83
2022/01/28 13:48:20;;;;;;;6.30;4.00;;;2.40;99.90;;;;;;5035464;28;20180;-82
2022/01/28 13:50:49;;;;;;;8.10;3.67;;;2.50;99.90;;;;;;5053471;28;20168;-84
2022/01/28 13:56:04;;;;;;;4.57;3.10;;;2.40;99.90;;;;;;5053122;28;20739;-83
2022/01/28 13:58:51;;;;;;;5.27;2.93;;;3.50;99.90;;;;;;5053505;28;20175;-82
2022/01/28 14:01:17;;;;;;;6.07;3.60;;;2.40;99.90;;;;;;5051351;28;20183;-82
2022/01/28 14:03:57;;;;;;;3.27;2.80;;;2.50;99.90;;;;;;5053348;28;20233;-83
2022/01/28 14:06:28;;;;;;;3.93;2.80;;;2.50;99.90;;;;;;5019894;28;20192;-81
2022/01/28 14:09:11;;;;;;;4.97;3.13;;;3.10;99.90;;;;;;5053473;28;20732;-82
2022/01/28 14:11:46;;;;;;;5.93;2.40;;;2.50;99.90;;;;;;5035907;28;20176;-82
2022/01/28 14:14:34;;;;;;;5.30;2.73;;;2.50;99.90;;;;;;5019838;28;20695;-83
2022/01/28 14:17:19;;;;;;;5.00;3.20;;;2.50;99.90;;;;;;5038869;28;20202;-84
2022/01/28 14:19:48;;;;;;;8.57;3.67;;;;;;;;;;5052658;28;20216;-85
2022/01/28 14:22:14;;;;;;;3.73;2.70;;;;;;;;;;5052941;28;20175;-83
2022/01/28 14:24:44;;;;;;;4.63;3.23;;;2.50;99.90;;;;;;5035379;28;20175;-86
2022/01/28 14:27:45;;;;;;;5.17;3.17;;;;;;;;;;5018947;28;20232;-85
2022/01/28 14:30:04;;;;;;;4.83;3.53;;;;;;;;;;5052828;28;20668;-86
2022/01/28 14:32:31;;;;;;;7.67;3.93;;;;;;;;;;5035337;28;20171;-84
2022/01/28 14:34:57;;;;;;;5.40;3.70;;;2.30;99.90;;;;;;5034690;28;20648;-83
2022/01/28 14:37:26;;;;;;;6.70;4.13;;;2.90;99.90;;;;;;5034541;28;20578;-83
2022/01/28 14:39:52;;;;;;;7.53;3.23;;;;;;;;;;5050008;28;20184;-83
2022/01/28 14:42:18;;;;;;;7.87;4.00;;;2.30;99.90;;;;;;5034174;28;20180;-83
2022/01/28 14:44:47;;;;;;;3.93;3.47;;;2.40;99.90;;;;;;5034396;28;20757;-83
2022/01/28 14:47:14;;;;;;;8.17;4.53;;;2.30;99.90;;;;;;5036544;28;20265;-83